sensor_id;sensor_type;location;lat;lon;timestamp;P1;durP1;ratioP1;P2;durP2;ratioP2
43327;SDS011;28923;45.412;10.852;2023-03-07T00:02:04;10.00;;;7.45;;
43327;SDS011;28923;45.412;10.852;2023-03-07T00:04:29;9.80;;;7.40;;
43327;SDS011;28923;45.412;10.852;2023-03-07T00:06:55;11.23;;;7.00;;
43327;SDS011;28923;45.412;10.852;2023-03-07T00:09:21;10.27;;;7.35;;
43327;SDS011;28923;45.412;10.852;2023-03-07T00:11:46;10.43;;;7.45;;
43327;SDS011;28923;45.412;10.852;2023-03-07T00:14:11;10.23;;;7.32;;
43327;SDS011;28923;45.412;10.852;2023-03-07T00:16:37;11.00;;;7.97;;
43327;SDS011;28923;45.412;10.852;2023-03-07T00:19:02;9.20;;;7.22;;
43327;SDS011;28923;45.412;10.852;2023-03-07T00:21:29;10.27;;;7.53;;
43327;SDS011;28923;45.412;10.852;2023-03-07T00:23:56;10.10;;;7.03;;
43327;SDS011;28923;45.412;10.852;2023-03-07T00:26:22;11.20;;;7.68;;
43327;SDS011;28923;45.412;10.852;2023-03-07T00:28:49;10.82;;;8.23;;
43327;SDS011;28923;45.412;10.852;2023-03-07T00:31:14;10.25;;;8.00;;
43327;SDS011;28923;45.412;10.852;2023-03-07T00:33:40;10.38;;;8.05;;
43327;SDS011;28923;45.412;10.852;2023-03-07T00:36:07;10.00;;;7.32;;
43327;SDS011;28923;45.412;10.852;2023-03-07T00:38:33;10.38;;;7.72;;
43327;SDS011;28923;45.412;10.852;2023-03-07T00:41:03;8.70;;;7.05;;
43327;SDS011;28923;45.412;10.852;2023-03-07T00:43:29;11.27;;;7.35;;
43327;SDS011;28923;45.412;10.852;2023-03-07T00:45:54;10.57;;;7.78;;
43327;SDS011;28923;45.412;10.852;2023-03-07T00:48:20;10.88;;;7.50;;
43327;SDS011;28923;45.412;10.852;2023-03-07T00:50:46;11.60;;;7.68;;
43327;SDS011;28923;45.412;10.852;2023-03-07T00:53:11;9.95;;;7.30;;
43327;SDS011;28923;45.412;10.852;2023-03-07T00:55:37;10.40;;;7.63;;
43327;SDS011;28923;45.412;10.852;2023-03-07T00:58:03;10.30;;;7.30;;
43327;SDS011;28923;45.412;10.852;2023-03-07T01:00:28;13.70;;;8.18;;
43327;SDS011;28923;45.412;10.852;2023-03-07T01:02:54;9.82;;;7.13;;
43327;SDS011;28923;45.412;10.852;2023-03-07T01:05:21;9.80;;;7.03;;
43327;SDS011;28923;45.412;10.852;2023-03-07T01:07:47;9.13;;;7.38;;
43327;SDS011;28923;45.412;10.852;2023-03-07T01:10:12;9.80;;;7.40;;
43327;SDS011;28923;45.412;10.852;2023-03-07T01:12:38;9.93;;;7.63;;
43327;SDS011;28923;45.412;10.852;2023-03-07T01:15:03;9.90;;;7.55;;
43327;SDS011;28923;45.412;10.852;2023-03-07T01:17:31;11.10;;;8.15;;
43327;SDS011;28923;45.412;10.852;2023-03-07T01:19:57;9.68;;;7.25;;
43327;SDS011;28923;45.412;10.852;2023-03-07T01:22:22;10.48;;;7.30;;
43327;SDS011;28923;45.412;10.852;2023-03-07T01:24:48;10.40;;;7.38;;
43327;SDS011;28923;45.412;10.852;2023-03-07T01:27:13;11.73;;;7.75;;
43327;SDS011;28923;45.412;10.852;2023-03-07T01:29:39;10.75;;;7.95;;
43327;SDS011;28923;45.412;10.852;2023-03-07T01:32:04;9.65;;;7.38;;
43327;SDS011;28923;45.412;10.852;2023-03-07T01:34:30;8.75;;;6.85;;
43327;SDS011;28923;45.412;10.852;2023-03-07T01:36:55;8.75;;;7.50;;
43327;SDS011;28923;45.412;10.852;2023-03-07T01:39:21;10.43;;;7.22;;
43327;SDS011;28923;45.412;10.852;2023-03-07T01:41:52;9.65;;;6.97;;
43327;SDS011;28923;45.412;10.852;2023-03-07T01:44:22;10.38;;;7.13;;
43327;SDS011;28923;45.412;10.852;2023-03-07T01:46:53;9.95;;;7.90;;
43327;SDS011;28923;45.412;10.852;2023-03-07T01:49:27;9.48;;;7.38;;
43327;SDS011;28923;45.412;10.852;2023-03-07T01:54:37;11.23;;;7.30;;
43327;SDS011;28923;45.412;10.852;2023-03-07T01:57:03;10.13;;;7.53;;
43327;SDS011;28923;45.412;10.852;2023-03-07T01:59:33;9.40;;;7.35;;
43327;SDS011;28923;45.412;10.852;2023-03-07T02:02:00;9.68;;;7.45;;
43327;SDS011;28923;45.412;10.852;2023-03-07T02:07:14;9.00;;;6.93;;
43327;SDS011;28923;45.412;10.852;2023-03-07T02:09:41;8.80;;;6.97;;
43327;SDS011;28923;45.412;10.852;2023-03-07T02:12:07;9.00;;;7.45;;
43327;SDS011;28923;45.412;10.852;2023-03-07T02:14:33;12.25;;;8.05;;
43327;SDS011;28923;45.412;10.852;2023-03-07T02:16:59;8.63;;;7.38;;
43327;SDS011;28923;45.412;10.852;2023-03-07T02:22:12;8.65;;;6.97;;
43327;SDS011;28923;45.412;10.852;2023-03-07T02:27:19;10.45;;;7.53;;
43327;SDS011;28923;45.412;10.852;2023-03-07T02:29:45;9.07;;;7.40;;
43327;SDS011;28923;45.412;10.852;2023-03-07T02:32:12;9.75;;;7.20;;
43327;SDS011;28923;45.412;10.852;2023-03-07T02:34:38;9.65;;;7.55;;
43327;SDS011;28923;45.412;10.852;2023-03-07T02:37:20;9.93;;;7.30;;
43327;SDS011;28923;45.412;10.852;2023-03-07T02:39:47;9.30;;;7.25;;
43327;SDS011;28923;45.412;10.852;2023-03-07T02:42:20;8.70;;;6.97;;
43327;SDS011;28923;45.412;10.852;2023-03-07T02:44:54;9.52;;;7.45;;
43327;SDS011;28923;45.412;10.852;2023-03-07T02:47:20;11.93;;;7.78;;
43327;SDS011;28923;45.412;10.852;2023-03-07T02:49:46;9.38;;;7.60;;
43327;SDS011;28923;45.412;10.852;2023-03-07T02:52:11;9.73;;;6.82;;
43327;SDS011;28923;45.412;10.852;2023-03-07T02:54:37;8.75;;;7.20;;
43327;SDS011;28923;45.412;10.852;2023-03-07T02:57:02;10.45;;;7.53;;
43327;SDS011;28923;45.412;10.852;2023-03-07T02:59:29;9.77;;;7.40;;
43327;SDS011;28923;45.412;10.852;2023-03-07T03:01:54;10.45;;;7.50;;
43327;SDS011;28923;45.412;10.852;2023-03-07T03:04:20;8.20;;;6.30;;
43327;SDS011;28923;45.412;10.852;2023-03-07T03:06:46;9.80;;;6.90;;
43327;SDS011;28923;45.412;10.852;2023-03-07T03:09:12;9.13;;;7.38;;
43327;SDS011;28923;45.412;10.852;2023-03-07T03:11:37;10.82;;;7.63;;
43327;SDS011;28923;45.412;10.852;2023-03-07T03:14:03;9.35;;;7.50;;
43327;SDS011;28923;45.412;10.852;2023-03-07T03:16:28;10.45;;;7.15;;
43327;SDS011;28923;45.412;10.852;2023-03-07T03:18:54;11.55;;;7.38;;
43327;SDS011;28923;45.412;10.852;2023-03-07T03:21:19;10.32;;;7.15;;
43327;SDS011;28923;45.412;10.852;2023-03-07T03:23:45;8.85;;;7.22;;
43327;SDS011;28923;45.412;10.852;2023-03-07T03:26:10;8.80;;;7.00;;
43327;SDS011;28923;45.412;10.852;2023-03-07T03:28:37;9.70;;;7.22;;
43327;SDS011;28923;45.412;10.852;2023-03-07T03:31:08;10.23;;;7.60;;
43327;SDS011;28923;45.412;10.852;2023-03-07T03:33:36;9.07;;;7.13;;
43327;SDS011;28923;45.412;10.852;2023-03-07T03:36:06;10.27;;;6.85;;
43327;SDS011;28923;45.412;10.852;2023-03-07T03:38:32;8.25;;;6.43;;
43327;SDS011;28923;45.412;10.852;2023-03-07T03:40:58;9.95;;;7.18;;
43327;SDS011;28923;45.412;10.852;2023-03-07T03:43:23;10.27;;;7.13;;
43327;SDS011;28923;45.412;10.852;2023-03-07T03:45:52;9.23;;;7.00;;
43327;SDS011;28923;45.412;10.852;2023-03-07T03:48:18;9.15;;;6.82;;
43327;SDS011;28923;45.412;10.852;2023-03-07T03:50:43;8.38;;;6.72;;
43327;SDS011;28923;45.412;10.852;2023-03-07T03:53:09;8.75;;;7.28;;
43327;SDS011;28923;45.412;10.852;2023-03-07T03:55:34;9.38;;;7.03;;
43327;SDS011;28923;45.412;10.852;2023-03-07T03:57:59;9.27;;;6.75;;
43327;SDS011;28923;45.412;10.852;2023-03-07T04:00:25;9.25;;;7.20;;
43327;SDS011;28923;45.412;10.852;2023-03-07T04:02:50;9.90;;;7.57;;
43327;SDS011;28923;45.412;10.852;2023-03-07T04:05:17;9.95;;;7.15;;
43327;SDS011;28923;45.412;10.852;2023-03-07T04:07:42;9.15;;;7.28;;
43327;SDS011;28923;45.412;10.852;2023-03-07T04:10:08;9.25;;;7.13;;
43327;SDS011;28923;45.412;10.852;2023-03-07T04:12:34;9.00;;;6.97;;
43327;SDS011;28923;45.412;10.852;2023-03-07T04:14:59;9.57;;;7.18;;
43327;SDS011;28923;45.412;10.852;2023-03-07T04:17:25;9.90;;;7.47;;
43327;SDS011;28923;45.412;10.852;2023-03-07T04:19:50;11.38;;;6.68;;
43327;SDS011;28923;45.412;10.852;2023-03-07T04:22:15;10.88;;;7.57;;
43327;SDS011;28923;45.412;10.852;2023-03-07T04:24:41;8.98;;;7.45;;
43327;SDS011;28923;45.412;10.852;2023-03-07T04:27:06;9.93;;;7.07;;
43327;SDS011;28923;45.412;10.852;2023-03-07T04:29:34;9.88;;;7.28;;
43327;SDS011;28923;45.412;10.852;2023-03-07T04:32:11;10.25;;;7.22;;
43327;SDS011;28923;45.412;10.852;2023-03-07T04:34:36;11.85;;;8.10;;
43327;SDS011;28923;45.412;10.852;2023-03-07T04:37:02;8.90;;;7.18;;
43327;SDS011;28923;45.412;10.852;2023-03-07T04:39:27;10.05;;;7.50;;
43327;SDS011;28923;45.412;10.852;2023-03-07T04:41:53;9.45;;;7.60;;
43327;SDS011;28923;45.412;10.852;2023-03-07T04:44:20;9.82;;;7.72;;
43327;SDS011;28923;45.412;10.852;2023-03-07T04:46:46;10.30;;;7.32;;
43327;SDS011;28923;45.412;10.852;2023-03-07T04:49:11;11.55;;;7.47;;
43327;SDS011;28923;45.412;10.852;2023-03-07T04:51:38;10.18;;;7.35;;
43327;SDS011;28923;45.412;10.852;2023-03-07T04:54:03;9.52;;;7.53;;
43327;SDS011;28923;45.412;10.852;2023-03-07T04:56:29;9.80;;;7.10;;
43327;SDS011;28923;45.412;10.852;2023-03-07T04:58:55;10.00;;;7.30;;
43327;SDS011;28923;45.412;10.852;2023-03-07T05:01:20;9.93;;;7.50;;
43327;SDS011;28923;45.412;10.852;2023-03-07T05:03:47;9.55;;;7.40;;
43327;SDS011;28923;45.412;10.852;2023-03-07T05:06:14;9.48;;;7.50;;
43327;SDS011;28923;45.412;10.852;2023-03-07T05:08:44;10.88;;;7.82;;
43327;SDS011;28923;45.412;10.852;2023-03-07T05:11:10;10.07;;;7.78;;
43327;SDS011;28923;45.412;10.852;2023-03-07T05:13:35;11.00;;;7.43;;
43327;SDS011;28923;45.412;10.852;2023-03-07T05:16:01;11.52;;;7.80;;
43327;SDS011;28923;45.412;10.852;2023-03-07T05:18:27;10.38;;;7.65;;
43327;SDS011;28923;45.412;10.852;2023-03-07T05:20:54;10.20;;;7.45;;
43327;SDS011;28923;45.412;10.852;2023-03-07T05:23:20;10.02;;;7.88;;
43327;SDS011;28923;45.412;10.852;2023-03-07T05:25:47;9.32;;;7.25;;
43327;SDS011;28923;45.412;10.852;2023-03-07T05:28:14;9.70;;;7.90;;
43327;SDS011;28923;45.412;10.852;2023-03-07T05:30:41;9.85;;;7.38;;
43327;SDS011;28923;45.412;10.852;2023-03-07T05:33:07;10.13;;;7.60;;
43327;SDS011;28923;45.412;10.852;2023-03-07T05:35:33;15.32;;;7.32;;
43327;SDS011;28923;45.412;10.852;2023-03-07T05:38:00;10.38;;;8.05;;
43327;SDS011;28923;45.412;10.852;2023-03-07T05:40:26;12.15;;;7.47;;
43327;SDS011;28923;45.412;10.852;2023-03-07T05:42:52;10.73;;;7.22;;
43327;SDS011;28923;45.412;10.852;2023-03-07T05:45:18;8.90;;;6.97;;
43327;SDS011;28923;45.412;10.852;2023-03-07T05:47:49;10.55;;;7.25;;
43327;SDS011;28923;45.412;10.852;2023-03-07T05:50:16;12.10;;;7.93;;
43327;SDS011;28923;45.412;10.852;2023-03-07T05:52:43;9.93;;;7.15;;
43327;SDS011;28923;45.412;10.852;2023-03-07T05:55:09;13.45;;;8.07;;
43327;SDS011;28923;45.412;10.852;2023-03-07T05:57:35;12.90;;;8.40;;
43327;SDS011;28923;45.412;10.852;2023-03-07T06:00:00;11.35;;;7.75;;
43327;SDS011;28923;45.412;10.852;2023-03-07T06:02:26;12.18;;;7.78;;
43327;SDS011;28923;45.412;10.852;2023-03-07T06:04:52;10.52;;;7.25;;
43327;SDS011;28923;45.412;10.852;2023-03-07T06:07:18;12.93;;;7.80;;
43327;SDS011;28923;45.412;10.852;2023-03-07T06:09:44;12.68;;;7.20;;
43327;SDS011;28923;45.412;10.852;2023-03-07T06:12:10;10.07;;;7.50;;
43327;SDS011;28923;45.412;10.852;2023-03-07T06:14:35;13.52;;;7.90;;
43327;SDS011;28923;45.412;10.852;2023-03-07T06:17:02;19.17;;;7.65;;
43327;SDS011;28923;45.412;10.852;2023-03-07T06:19:27;14.98;;;8.15;;
43327;SDS011;28923;45.412;10.852;2023-03-07T06:21:53;16.95;;;8.27;;
43327;SDS011;28923;45.412;10.852;2023-03-07T06:24:18;13.45;;;8.00;;
43327;SDS011;28923;45.412;10.852;2023-03-07T06:26:44;17.27;;;8.13;;
43327;SDS011;28923;45.412;10.852;2023-03-07T06:29:10;14.30;;;7.65;;
43327;SDS011;28923;45.412;10.852;2023-03-07T06:31:36;14.13;;;7.90;;
43327;SDS011;28923;45.412;10.852;2023-03-07T06:34:02;12.95;;;7.68;;
43327;SDS011;28923;45.412;10.852;2023-03-07T06:36:27;14.88;;;7.65;;
43327;SDS011;28923;45.412;10.852;2023-03-07T06:38:56;16.02;;;7.53;;
43327;SDS011;28923;45.412;10.852;2023-03-07T06:41:23;16.35;;;7.95;;
43327;SDS011;28923;45.412;10.852;2023-03-07T06:43:51;11.25;;;7.13;;
43327;SDS011;28923;45.412;10.852;2023-03-07T06:46:22;14.88;;;7.63;;
43327;SDS011;28923;45.412;10.852;2023-03-07T06:48:48;14.75;;;7.97;;
43327;SDS011;28923;45.412;10.852;2023-03-07T06:51:17;12.50;;;7.53;;
43327;SDS011;28923;45.412;10.852;2023-03-07T06:53:43;14.10;;;8.55;;
43327;SDS011;28923;45.412;10.852;2023-03-07T06:56:09;14.85;;;7.47;;
43327;SDS011;28923;45.412;10.852;2023-03-07T06:58:35;12.77;;;7.97;;
43327;SDS011;28923;45.412;10.852;2023-03-07T07:01:00;13.75;;;8.73;;
43327;SDS011;28923;45.412;10.852;2023-03-07T07:03:27;11.82;;;7.70;;
43327;SDS011;28923;45.412;10.852;2023-03-07T07:05:52;10.65;;;7.72;;
43327;SDS011;28923;45.412;10.852;2023-03-07T07:08:18;11.48;;;7.90;;
43327;SDS011;28923;45.412;10.852;2023-03-07T07:10:43;11.35;;;7.85;;
43327;SDS011;28923;45.412;10.852;2023-03-07T07:13:09;14.73;;;8.07;;
43327;SDS011;28923;45.412;10.852;2023-03-07T07:15:37;13.48;;;8.05;;
43327;SDS011;28923;45.412;10.852;2023-03-07T07:18:02;14.65;;;7.53;;
43327;SDS011;28923;45.412;10.852;2023-03-07T07:20:30;10.27;;;7.20;;
43327;SDS011;28923;45.412;10.852;2023-03-07T07:22:55;12.65;;;7.88;;
43327;SDS011;28923;45.412;10.852;2023-03-07T07:25:20;13.43;;;7.57;;
43327;SDS011;28923;45.412;10.852;2023-03-07T07:27:46;13.93;;;7.75;;
43327;SDS011;28923;45.412;10.852;2023-03-07T07:30:12;9.10;;;7.60;;
43327;SDS011;28923;45.412;10.852;2023-03-07T07:32:38;11.07;;;7.57;;
43327;SDS011;28923;45.412;10.852;2023-03-07T07:35:04;12.15;;;7.55;;
43327;SDS011;28923;45.412;10.852;2023-03-07T07:37:30;10.02;;;7.82;;
43327;SDS011;28923;45.412;10.852;2023-03-07T07:39:56;12.88;;;7.90;;
43327;SDS011;28923;45.412;10.852;2023-03-07T07:42:21;12.25;;;7.85;;
43327;SDS011;28923;45.412;10.852;2023-03-07T07:45:01;10.85;;;7.18;;
43327;SDS011;28923;45.412;10.852;2023-03-07T07:47:28;11.43;;;7.60;;
43327;SDS011;28923;45.412;10.852;2023-03-07T07:49:53;10.55;;;7.50;;
43327;SDS011;28923;45.412;10.852;2023-03-07T07:52:19;11.75;;;7.97;;
43327;SDS011;28923;45.412;10.852;2023-03-07T07:54:45;10.07;;;7.55;;
43327;SDS011;28923;45.412;10.852;2023-03-07T07:57:11;10.60;;;8.18;;
43327;SDS011;28923;45.412;10.852;2023-03-07T07:59:37;10.55;;;7.72;;
43327;SDS011;28923;45.412;10.852;2023-03-07T08:02:05;12.45;;;8.50;;
43327;SDS011;28923;45.412;10.852;2023-03-07T08:04:30;12.75;;;8.40;;
43327;SDS011;28923;45.412;10.852;2023-03-07T08:06:56;11.68;;;8.63;;
43327;SDS011;28923;45.412;10.852;2023-03-07T08:09:21;11.30;;;8.27;;
43327;SDS011;28923;45.412;10.852;2023-03-07T08:11:47;12.88;;;8.43;;
43327;SDS011;28923;45.412;10.852;2023-03-07T08:14:13;11.82;;;8.23;;
43327;SDS011;28923;45.412;10.852;2023-03-07T08:16:38;13.55;;;8.05;;
43327;SDS011;28923;45.412;10.852;2023-03-07T08:19:03;13.60;;;8.27;;
43327;SDS011;28923;45.412;10.852;2023-03-07T08:21:29;13.63;;;8.07;;
43327;SDS011;28923;45.412;10.852;2023-03-07T08:23:54;11.45;;;8.30;;
43327;SDS011;28923;45.412;10.852;2023-03-07T08:26:20;10.82;;;8.35;;
43327;SDS011;28923;45.412;10.852;2023-03-07T08:28:46;10.02;;;8.13;;
43327;SDS011;28923;45.412;10.852;2023-03-07T08:31:16;11.23;;;8.40;;
43327;SDS011;28923;45.412;10.852;2023-03-07T08:33:41;11.95;;;8.65;;
43327;SDS011;28923;45.412;10.852;2023-03-07T08:36:07;11.93;;;8.77;;
43327;SDS011;28923;45.412;10.852;2023-03-07T08:38:32;12.25;;;8.93;;
43327;SDS011;28923;45.412;10.852;2023-03-07T08:40:58;12.52;;;8.30;;
43327;SDS011;28923;45.412;10.852;2023-03-07T08:43:24;10.27;;;7.93;;
43327;SDS011;28923;45.412;10.852;2023-03-07T08:45:49;11.57;;;8.25;;
43327;SDS011;28923;45.412;10.852;2023-03-07T08:48:15;10.90;;;8.10;;
43327;SDS011;28923;45.412;10.852;2023-03-07T08:50:40;12.18;;;8.20;;
43327;SDS011;28923;45.412;10.852;2023-03-07T08:53:06;11.48;;;7.65;;
43327;SDS011;28923;45.412;10.852;2023-03-07T08:55:33;13.50;;;8.40;;
43327;SDS011;28923;45.412;10.852;2023-03-07T08:57:59;10.52;;;8.10;;
43327;SDS011;28923;45.412;10.852;2023-03-07T09:00:25;10.95;;;7.85;;
43327;SDS011;28923;45.412;10.852;2023-03-07T09:02:50;11.65;;;7.57;;
43327;SDS011;28923;45.412;10.852;2023-03-07T09:05:16;10.85;;;8.23;;
43327;SDS011;28923;45.412;10.852;2023-03-07T09:07:41;10.02;;;7.78;;
43327;SDS011;28923;45.412;10.852;2023-03-07T09:10:07;11.35;;;8.05;;
43327;SDS011;28923;45.412;10.852;2023-03-07T09:12:32;9.70;;;7.65;;
43327;SDS011;28923;45.412;10.852;2023-03-07T09:14:58;10.55;;;7.88;;
43327;SDS011;28923;45.412;10.852;2023-03-07T09:17:23;10.85;;;8.10;;
43327;SDS011;28923;45.412;10.852;2023-03-07T09:19:50;10.35;;;7.93;;
43327;SDS011;28923;45.412;10.852;2023-03-07T09:22:15;11.05;;;8.00;;
43327;SDS011;28923;45.412;10.852;2023-03-07T09:24:41;9.48;;;7.95;;
43327;SDS011;28923;45.412;10.852;2023-03-07T09:27:06;11.30;;;8.25;;
43327;SDS011;28923;45.412;10.852;2023-03-07T09:29:32;11.70;;;8.35;;
43327;SDS011;28923;45.412;10.852;2023-03-07T09:31:57;11.05;;;8.20;;
43327;SDS011;28923;45.412;10.852;2023-03-07T09:34:22;11.18;;;8.15;;
43327;SDS011;28923;45.412;10.852;2023-03-07T09:36:49;9.73;;;8.15;;
43327;SDS011;28923;45.412;10.852;2023-03-07T09:39:14;10.90;;;8.00;;
43327;SDS011;28923;45.412;10.852;2023-03-07T09:51:56;10.82;;;8.20;;
43327;SDS011;28923;45.412;10.852;2023-03-07T09:54:27;9.35;;;7.60;;
43327;SDS011;28923;45.412;10.852;2023-03-07T09:56:56;10.75;;;8.07;;
43327;SDS011;28923;45.412;10.852;2023-03-07T09:59:35;9.45;;;7.55;;
43327;SDS011;28923;45.412;10.852;2023-03-07T10:04:29;10.60;;;7.75;;
43327;SDS011;28923;45.412;10.852;2023-03-07T10:06:57;9.23;;;7.32;;
43327;SDS011;28923;45.412;10.852;2023-03-07T10:09:24;9.23;;;7.65;;
43327;SDS011;28923;45.412;10.852;2023-03-07T10:14:21;11.35;;;7.80;;
43327;SDS011;28923;45.412;10.852;2023-03-07T10:16:56;11.38;;;7.82;;
43327;SDS011;28923;45.412;10.852;2023-03-07T10:21:57;9.48;;;7.10;;
43327;SDS011;28923;45.412;10.852;2023-03-07T10:24:31;10.85;;;7.32;;
43327;SDS011;28923;45.412;10.852;2023-03-07T10:29:26;8.65;;;7.13;;
43327;SDS011;28923;45.412;10.852;2023-03-07T10:31:54;10.20;;;7.85;;
43327;SDS011;28923;45.412;10.852;2023-03-07T10:34:22;9.85;;;7.40;;
43327;SDS011;28923;45.412;10.852;2023-03-07T10:36:49;8.75;;;6.68;;
43327;SDS011;28923;45.412;10.852;2023-03-07T10:39:22;10.25;;;7.28;;
43327;SDS011;28923;45.412;10.852;2023-03-07T10:41:49;9.00;;;7.10;;
43327;SDS011;28923;45.412;10.852;2023-03-07T10:44:16;8.60;;;7.10;;
43327;SDS011;28923;45.412;10.852;2023-03-07T10:46:42;9.50;;;6.57;;
43327;SDS011;28923;45.412;10.852;2023-03-07T10:49:21;8.60;;;6.53;;
43327;SDS011;28923;45.412;10.852;2023-03-07T10:54:32;7.47;;;6.40;;
43327;SDS011;28923;45.412;10.852;2023-03-07T10:57:05;7.93;;;6.80;;
43327;SDS011;28923;45.412;10.852;2023-03-07T10:59:31;9.05;;;6.88;;
43327;SDS011;28923;45.412;10.852;2023-03-07T11:01:57;8.65;;;6.75;;
43327;SDS011;28923;45.412;10.852;2023-03-07T11:04:24;9.70;;;6.35;;
43327;SDS011;28923;45.412;10.852;2023-03-07T11:06:53;8.73;;;6.80;;
43327;SDS011;28923;45.412;10.852;2023-03-07T11:09:22;7.65;;;6.03;;
43327;SDS011;28923;45.412;10.852;2023-03-07T11:11:53;7.85;;;5.80;;
43327;SDS011;28923;45.412;10.852;2023-03-07T11:14:23;7.30;;;5.95;;
43327;SDS011;28923;45.412;10.852;2023-03-07T11:16:58;8.63;;;6.05;;
43327;SDS011;28923;45.412;10.852;2023-03-07T11:21:55;6.90;;;5.80;;
43327;SDS011;28923;45.412;10.852;2023-03-07T11:24:23;7.43;;;5.00;;
43327;SDS011;28923;45.412;10.852;2023-03-07T11:26:52;7.65;;;5.20;;
43327;SDS011;28923;45.412;10.852;2023-03-07T11:29:17;8.15;;;5.93;;
43327;SDS011;28923;45.412;10.852;2023-03-07T11:31:49;8.32;;;5.78;;
43327;SDS011;28923;45.412;10.852;2023-03-07T11:37:28;7.57;;;5.22;;
43327;SDS011;28923;45.412;10.852;2023-03-07T11:42:35;6.82;;;5.10;;
43327;SDS011;28923;45.412;10.852;2023-03-07T11:45:07;6.18;;;5.20;;
43327;SDS011;28923;45.412;10.852;2023-03-07T11:50:22;6.60;;;4.97;;
43327;SDS011;28923;45.412;10.852;2023-03-07T11:55:47;5.88;;;4.70;;
43327;SDS011;28923;45.412;10.852;2023-03-07T12:14:03;6.93;;;5.15;;
43327;SDS011;28923;45.412;10.852;2023-03-07T12:21:46;5.30;;;4.18;;
43327;SDS011;28923;45.412;10.852;2023-03-07T12:24:20;7.32;;;4.20;;
43327;SDS011;28923;45.412;10.852;2023-03-07T12:26:52;6.28;;;4.88;;
43327;SDS011;28923;45.412;10.852;2023-03-07T12:31:49;6.07;;;4.32;;
43327;SDS011;28923;45.412;10.852;2023-03-07T12:36:57;6.72;;;4.20;;
43327;SDS011;28923;45.412;10.852;2023-03-07T12:46:56;7.22;;;4.25;;
43327;SDS011;28923;45.412;10.852;2023-03-07T12:49:33;9.93;;;4.10;;
43327;SDS011;28923;45.412;10.852;2023-03-07T12:52:03;11.23;;;3.95;;
43327;SDS011;28923;45.412;10.852;2023-03-07T12:54:37;7.80;;;4.05;;
43327;SDS011;28923;45.412;10.852;2023-03-07T12:59:30;13.05;;;3.80;;
43327;SDS011;28923;45.412;10.852;2023-03-07T13:04:40;12.35;;;4.32;;
43327;SDS011;28923;45.412;10.852;2023-03-07T13:07:13;13.35;;;3.85;;
43327;SDS011;28923;45.412;10.852;2023-03-07T13:09:41;10.77;;;3.85;;
43327;SDS011;28923;45.412;10.852;2023-03-07T13:14:48;14.88;;;4.18;;
43327;SDS011;28923;45.412;10.852;2023-03-07T13:19:52;8.88;;;3.97;;
43327;SDS011;28923;45.412;10.852;2023-03-07T13:24:44;8.70;;;3.80;;
43327;SDS011;28923;45.412;10.852;2023-03-07T13:27:21;10.02;;;4.07;;
43327;SDS011;28923;45.412;10.852;2023-03-07T13:42:57;11.23;;;4.07;;
43327;SDS011;28923;45.412;10.852;2023-03-07T13:48:10;13.07;;;3.50;;
43327;SDS011;28923;45.412;10.852;2023-03-07T13:50:36;7.15;;;3.40;;
43327;SDS011;28923;45.412;10.852;2023-03-07T13:53:03;9.50;;;3.45;;
43327;SDS011;28923;45.412;10.852;2023-03-07T13:55:40;9.80;;;3.42;;
43327;SDS011;28923;45.412;10.852;2023-03-07T13:58:44;8.48;;;3.60;;
43327;SDS011;28923;45.412;10.852;2023-03-07T14:00:58;7.10;;;3.50;;
43327;SDS011;28923;45.412;10.852;2023-03-07T14:03:28;7.13;;;3.63;;
43327;SDS011;28923;45.412;10.852;2023-03-07T14:05:58;7.13;;;3.38;;
43327;SDS011;28923;45.412;10.852;2023-03-07T14:08:26;5.45;;;3.33;;
43327;SDS011;28923;45.412;10.852;2023-03-07T14:10:52;7.32;;;2.75;;
43327;SDS011;28923;45.412;10.852;2023-03-07T14:26:23;6.15;;;3.42;;
43327;SDS011;28923;45.412;10.852;2023-03-07T14:28:57;7.38;;;3.30;;
43327;SDS011;28923;45.412;10.852;2023-03-07T14:31:23;8.15;;;3.00;;
43327;SDS011;28923;45.412;10.852;2023-03-07T14:33:49;6.38;;;3.00;;
43327;SDS011;28923;45.412;10.852;2023-03-07T14:36:28;5.72;;;2.85;;
43327;SDS011;28923;45.412;10.852;2023-03-07T14:38:56;6.32;;;2.75;;
43327;SDS011;28923;45.412;10.852;2023-03-07T14:41:31;5.90;;;2.95;;
43327;SDS011;28923;45.412;10.852;2023-03-07T14:51:28;6.28;;;3.47;;
43327;SDS011;28923;45.412;10.852;2023-03-07T14:53:55;5.13;;;2.90;;
43327;SDS011;28923;45.412;10.852;2023-03-07T14:56:28;7.75;;;3.00;;
43327;SDS011;28923;45.412;10.852;2023-03-07T14:58:58;4.07;;;2.90;;
43327;SDS011;28923;45.412;10.852;2023-03-07T15:01:31;5.28;;;3.00;;
43327;SDS011;28923;45.412;10.852;2023-03-07T15:03:59;5.65;;;3.13;;
43327;SDS011;28923;45.412;10.852;2023-03-07T15:06:25;4.93;;;2.53;;
43327;SDS011;28923;45.412;10.852;2023-03-07T15:08:52;5.28;;;2.53;;
43327;SDS011;28923;45.412;10.852;2023-03-07T15:14:02;5.20;;;2.85;;
43327;SDS011;28923;45.412;10.852;2023-03-07T15:16:35;3.47;;;2.50;;
43327;SDS011;28923;45.412;10.852;2023-03-07T15:21:37;5.07;;;2.75;;
43327;SDS011;28923;45.412;10.852;2023-03-07T15:24:04;4.30;;;2.45;;
43327;SDS011;28923;45.412;10.852;2023-03-07T15:26:29;5.13;;;2.63;;
43327;SDS011;28923;45.412;10.852;2023-03-07T15:28:57;3.75;;;2.33;;
43327;SDS011;28923;45.412;10.852;2023-03-07T15:31:23;5.45;;;2.60;;
43327;SDS011;28923;45.412;10.852;2023-03-07T15:33:49;4.60;;;2.72;;
43327;SDS011;28923;45.412;10.852;2023-03-07T15:36:16;5.07;;;2.78;;
43327;SDS011;28923;45.412;10.852;2023-03-07T15:38:42;6.50;;;2.78;;
43327;SDS011;28923;45.412;10.852;2023-03-07T15:46:36;3.35;;;2.40;;
43327;SDS011;28923;45.412;10.852;2023-03-07T15:49:02;4.40;;;2.70;;
43327;SDS011;28923;45.412;10.852;2023-03-07T15:51:33;3.42;;;2.35;;
43327;SDS011;28923;45.412;10.852;2023-03-07T15:56:42;3.47;;;2.50;;
43327;SDS011;28923;45.412;10.852;2023-03-07T15:59:16;4.28;;;2.65;;
43327;SDS011;28923;45.412;10.852;2023-03-07T16:01:43;4.70;;;2.53;;
43327;SDS011;28923;45.412;10.852;2023-03-07T16:06:52;3.80;;;2.42;;
43327;SDS011;28923;45.412;10.852;2023-03-07T16:09:17;3.88;;;2.70;;
43327;SDS011;28923;45.412;10.852;2023-03-07T16:11:44;4.05;;;2.60;;
43327;SDS011;28923;45.412;10.852;2023-03-07T16:14:22;5.70;;;2.75;;
43327;SDS011;28923;45.412;10.852;2023-03-07T16:16:53;3.08;;;2.55;;
43327;SDS011;28923;45.412;10.852;2023-03-07T16:19:20;4.75;;;2.70;;
43327;SDS011;28923;45.412;10.852;2023-03-07T16:21:46;3.60;;;2.60;;
43327;SDS011;28923;45.412;10.852;2023-03-07T16:24:11;12.45;;;3.15;;
43327;SDS011;28923;45.412;10.852;2023-03-07T16:26:37;7.47;;;3.33;;
43327;SDS011;28923;45.412;10.852;2023-03-07T16:29:02;9.95;;;2.70;;
43327;SDS011;28923;45.412;10.852;2023-03-07T16:31:28;8.30;;;2.92;;
43327;SDS011;28923;45.412;10.852;2023-03-07T16:33:53;10.48;;;3.08;;
43327;SDS011;28923;45.412;10.852;2023-03-07T16:36:20;8.77;;;2.83;;
43327;SDS011;28923;45.412;10.852;2023-03-07T16:38:45;11.30;;;2.92;;
43327;SDS011;28923;45.412;10.852;2023-03-07T16:41:18;5.82;;;3.00;;
43327;SDS011;28923;45.412;10.852;2023-03-07T16:43:44;10.40;;;2.50;;
43327;SDS011;28923;45.412;10.852;2023-03-07T16:46:11;7.85;;;2.95;;
43327;SDS011;28923;45.412;10.852;2023-03-07T16:48:37;12.07;;;2.85;;
43327;SDS011;28923;45.412;10.852;2023-03-07T16:51:03;6.00;;;2.60;;
43327;SDS011;28923;45.412;10.852;2023-03-07T16:53:28;9.90;;;2.70;;
43327;SDS011;28923;45.412;10.852;2023-03-07T16:55:54;7.45;;;2.30;;